Time;durP1;ratioP1;P1;durP2;ratioP2;P2;SDS_P1;SDS_P2;PMS_P1;PMS_P2;Temp;Humidity;BMP_temperature;BMP_pressure;BME280_temperature;BME280_humidity;BME280_pressure;Samples;Min_cycle;Max_cycle;Signal;HPM_P1;HPM_P2
2022/03/29 00:00:18;;;;;;;0.37;0.27;;;;;;;11.70;69.27;95699.19;5092262;28;20494;-54
2022/03/29 00:02:47;;;;;;;0.30;0.20;;;;;;;11.41;71.33;95699.69;5092371;28;20425;-54
2022/03/29 00:05:15;;;;;;;0.77;0.70;;;;;;;11.58;70.02;95685.38;5091685;28;20425;-54
2022/03/29 00:07:44;;;;;;;0.33;0.27;;;;;;;11.78;67.98;95688.03;5092383;28;20472;-54
2022/03/29 00:10:12;;;;;;;0.30;0.30;;;;;;;11.83;67.75;95685.38;5091918;28;20589;-53
2022/03/29 00:12:41;;;;;;;0.53;0.53;;;;;;;11.51;70.41;95688.25;5092490;28;20511;-54
2022/03/29 00:15:12;;;;;;;0.53;0.53;;;;;;;11.68;67.89;95685.34;5092535;28;20525;-54
2022/03/29 00:17:40;;;;;;;0.40;0.30;;;;;;;11.69;68.28;95673.72;5092169;28;20512;-54
2022/03/29 00:20:09;;;;;;;0.30;0.20;;;;;;;11.22;73.22;95684.53;5092110;28;20456;-54
2022/03/29 00:22:38;;;;;;;0.40;0.30;;;;;;;11.25;73.00;95676.88;5092236;28;20573;-54
2022/03/29 00:25:08;;;;;;;0.30;0.27;;;;;;;11.58;68.80;95672.09;5092112;28;20526;-54
2022/03/29 00:27:36;;;;;;;0.43;0.43;;;;;;;11.23;73.61;95670.22;5092047;28;20468;-54
2022/03/29 00:30:09;;;;;;;0.43;0.40;;;;;;;10.75;77.08;95661.63;5091859;28;20481;-54
2022/03/29 00:32:39;;;;;;;0.40;0.30;;;;;;;10.66;79.53;95673.81;5092221;28;20890;-54
2022/03/29 00:35:10;;;;;;;0.50;0.30;;;;;;;11.17;75.71;95671.28;5092321;28;20897;-54
2022/03/29 00:37:38;;;;;;;0.43;0.43;;;;;;;11.13;76.28;95664.91;5091899;28;20436;-54
2022/03/29 00:40:09;;;;;;;0.40;0.30;;;;;;;11.14;75.66;95659.34;5092239;28;20445;-54
2022/03/29 00:42:37;;;;;;;0.30;0.20;;;;;;;11.01;76.57;95661.69;5091748;28;20435;-54
2022/03/29 00:45:07;;;;;;;0.40;0.30;;;;;;;10.33;83.22;95654.88;5091807;28;20475;-54
2022/03/29 00:47:36;;;;;;;0.50;0.50;;;;;;;10.68;82.40;95649.69;5092111;28;20861;-54
2022/03/29 00:50:09;;;;;;;1.53;0.70;;;;;;;11.02;78.56;95647.38;5092896;28;20476;-54
2022/03/29 00:52:39;;;;;;;0.67;0.67;;;;;;;11.05;77.30;95641.56;5095444;28;20467;-54
2022/03/29 00:55:12;;;;;;;0.30;0.20;;;;;;;10.95;76.83;95642.34;5095742;28;20425;-54
2022/03/29 00:57:45;;;;;;;0.30;0.20;;;;;;;10.90;78.47;95644.19;5095863;28;20495;-54
2022/03/29 01:00:15;;;;;;;0.40;0.30;;;;;;;11.24;72.97;95630.16;5095776;28;20486;-54
2022/03/29 01:02:45;;;;;;;0.60;0.60;;;;;;;11.46;71.28;95628.03;5095635;28;20478;-54
2022/03/29 01:05:15;;;;;;;0.50;0.40;;;;;;;11.50;69.99;95628.28;5095990;28;20431;-54
2022/03/29 01:07:44;;;;;;;0.60;0.40;;;;;;;11.51;69.32;95634.41;5095728;28;20485;-54
2022/03/29 01:10:12;;;;;;;0.40;0.30;;;;;;;11.48;71.07;95630.44;5095318;28;20855;-54
2022/03/29 01:12:41;;;;;;;0.30;0.20;;;;;;;11.42;70.46;95632.28;5095468;28;20433;-54
2022/03/29 01:15:10;;;;;;;0.73;0.73;;;;;;;11.22;70.21;95602.31;5095427;28;21027;-54
2022/03/29 01:17:43;;;;;;;0.43;0.40;;;;;;;11.38;71.01;95620.59;5095325;28;20428;-54
2022/03/29 01:20:19;;;;;;;0.50;0.50;;;;;;;11.28;72.38;95615.28;5095315;28;20521;-54
2022/03/29 01:22:51;;;;;;;0.30;0.20;;;;;;;11.22;71.87;95616.38;5095236;28;20490;-54
2022/03/29 01:25:20;;;;;;;0.40;0.30;;;;;;;11.21;70.53;95606.00;5095131;28;20468;-54
2022/03/29 01:27:51;;;;;;;0.50;0.40;;;;;;;11.17;71.64;95603.09;5095048;28;20822;-54
2022/03/29 01:30:21;;;;;;;1.23;0.50;;;;;;;11.16;71.34;95606.81;5095280;28;20554;-54
2022/03/29 01:32:51;;;;;;;0.33;0.27;;;;;;;10.94;73.09;95600.16;5095092;28;20952;-54
2022/03/29 01:35:22;;;;;;;12.73;2.13;;;;;;;10.57;72.86;95550.03;5095282;28;20497;-53
2022/03/29 01:37:53;;;;;;;0.40;0.30;;;;;;;11.01;72.06;95604.16;5094821;28;20465;-53
2022/03/29 01:40:23;;;;;;;0.37;0.30;;;;;;;10.99;71.93;95593.00;5094859;28;20421;-54
2022/03/29 01:42:53;;;;;;;0.30;0.20;;;;;;;11.01;72.39;95601.50;5094730;28;20474;-53
2022/03/29 01:45:25;;;;;;;0.30;0.20;;;;;;;10.88;73.27;95598.59;5094823;28;20526;-54
2022/03/29 01:47:53;;;;;;;0.30;0.20;;;;;;;10.77;73.18;95592.47;5094783;28;21104;-54
2022/03/29 01:50:22;;;;;;;0.30;0.20;;;;;;;10.94;72.63;95586.91;5094825;28;20543;-53
2022/03/29 01:52:52;;;;;;;0.40;0.30;;;;;;;10.54;74.24;95561.16;5094515;28;20424;-54
2022/03/29 01:55:22;;;;;;;0.77;0.77;;;;;;;10.56;72.96;95564.31;5094706;28;20456;-53
2022/03/29 01:57:53;;;;;;;0.40;0.30;;;;;;;10.70;73.31;95581.34;5094518;28;20472;-53
2022/03/29 02:00:34;;;;;;;0.30;0.20;;;;;;;10.67;73.12;95587.16;5094726;28;20423;-54
2022/03/29 02:03:04;;;;;;;0.50;0.50;;;;;;;10.50;74.80;95581.28;5093713;28;20530;-54
2022/03/29 02:05:33;;;;;;;0.40;0.40;;;;;;;10.08;81.96;95592.78;5094821;28;20770;-54
2022/03/29 02:08:03;;;;;;;0.63;0.63;;;;;;;10.10;81.83;95587.22;5094020;28;20423;-54
2022/03/29 02:10:32;;;;;;;0.40;0.30;;;;;;;10.16;80.59;95584.38;5094202;28;20512;-54
2022/03/29 02:13:01;;;;;;;0.40;0.30;;;;;;;10.20;79.96;95574.84;5094374;28;20994;-54
2022/03/29 02:15:29;;;;;;;0.70;0.70;;;;;;;10.04;79.66;95551.97;5094285;28;20440;-54
2022/03/29 02:17:57;;;;;;;0.40;0.30;;;;;;;10.33;77.42;95578.03;5094320;28;20913;-54
2022/03/29 02:20:26;;;;;;;0.40;0.30;;;;;;;10.27;77.56;95549.97;5094383;28;20500;-53
2022/03/29 02:22:55;;;;;;;0.30;0.20;;;;;;;10.30;76.01;95570.59;5094044;28;20812;-53
2022/03/29 02:25:25;;;;;;;0.50;0.30;;;;;;;10.31;75.42;95567.72;5094000;28;20981;-54
2022/03/29 02:27:53;;;;;;;0.43;0.43;;;;;;;10.20;75.78;95574.03;5094407;28;20424;-54
2022/03/29 02:30:22;;;;;;;0.37;0.30;;;;;;;10.37;74.33;95572.00;5094004;28;20500;-54
2022/03/29 02:32:50;;;;;;;0.40;0.40;;;;;;;10.05;77.66;95568.66;5093982;28;20511;-54
2022/03/29 02:35:19;;;;;;;0.40;0.27;;;;;;;10.05;76.55;95566.00;5093770;28;20452;-54
2022/03/29 02:37:47;;;;;;;0.30;0.20;;;;;;;10.16;76.61;95560.53;5094080;28;20436;-54
2022/03/29 02:40:15;;;;;;;0.30;0.20;;;;;;;10.05;77.81;95563.34;5093908;28;20455;-54
2022/03/29 02:42:47;;;;;;;0.30;0.20;;;;;;;9.96;78.79;95554.34;5093842;28;20490;-54
2022/03/29 02:45:17;;;;;;;3.80;0.30;;;;;;;9.58;81.03;95550.19;5093798;28;20476;-54
2022/03/29 02:47:46;;;;;;;0.40;0.30;;;;;;;9.56;82.67;95563.66;5093739;28;20983;-54
2022/03/29 02:50:16;;;;;;;0.40;0.30;;;;;;;9.32;86.14;95556.38;5093622;28;20510;-54
2022/03/29 02:52:47;;;;;;;0.33;0.30;;;;;;;9.28;86.71;95563.25;5093615;28;21131;-53
2022/03/29 02:55:16;;;;;;;0.30;0.20;;;;;;;8.20;86.88;95419.16;5093603;28;20489;-55
2022/03/29 02:57:46;;;;;;;0.30;0.20;;;;;;;8.56;96.67;95560.25;5093534;28;20519;-53
2022/03/29 03:00:16;;;;;;;0.30;0.20;;;;;;;8.82;93.60;95565.53;5093154;28;20413;-54
2022/03/29 03:02:45;;;;;;;0.40;0.40;;;;;;;9.08;89.41;95563.09;5093193;28;20490;-54
2022/03/29 03:05:14;;;;;;;0.30;0.20;;;;;;;9.22;87.96;95572.19;5093350;28;20516;-54
2022/03/29 03:07:44;;;;;;;0.40;0.30;;;;;;;8.78;93.03;95556.50;5092474;28;20462;-54
2022/03/29 03:10:14;;;;;;;1.57;1.47;;;;;;;8.85;93.38;95554.44;5093145;28;20537;-53
2022/03/29 03:12:46;;;;;;;0.40;0.40;;;;;;;8.94;91.92;95555.59;5093015;28;20909;-53
2022/03/29 03:15:16;;;;;;;0.30;0.20;;;;;;;9.00;90.37;95555.63;5093548;28;20425;-53
2022/03/29 03:17:46;;;;;;;0.30;0.30;;;;;;;9.12;89.08;95559.69;5093423;28;20520;-54
2022/03/29 03:20:14;;;;;;;0.50;0.40;;;;;;;8.44;90.91;95468.00;5092131;28;20458;-53
2022/03/29 03:22:43;;;;;;;0.40;0.30;;;;;;;8.95;90.79;95549.22;5092880;28;20485;-53
2022/03/29 03:25:11;;;;;;;0.40;0.40;;;;;;;8.99;88.75;95548.72;5092450;28;20452;-53
2022/03/29 03:27:41;;;;;;;0.30;0.30;;;;;;;9.04;89.20;95551.41;5092619;28;20436;-52
2022/03/29 03:30:13;;;;;;;0.30;0.20;;;;;;;8.76;91.91;95552.53;5093351;28;20464;-53
2022/03/29 03:32:42;;;;;;;0.30;0.30;;;;;;;8.70;92.54;95556.97;5092916;28;20436;-52
2022/03/29 03:35:17;;;;;;;1.03;1.03;;;;;;;8.78;90.13;95558.34;5093361;28;20424;-53
2022/03/29 03:37:46;;;;;;;0.30;0.30;;;;;;;8.77;90.97;95554.13;5092533;28;20795;-53
2022/03/29 03:40:15;;;;;;;0.30;0.20;;;;;;;8.39;95.37;95557.75;5092908;28;20425;-53
2022/03/29 03:42:43;;;;;;;0.60;0.60;;;;;;;8.11;99.21;95558.75;5092946;28;20502;-53
2022/03/29 03:45:14;;;;;;;0.53;0.50;;;;;;;8.37;96.49;95566.97;5092930;28;20916;-53
2022/03/29 03:47:42;;;;;;;0.47;0.47;;;;;;;8.32;98.06;95561.63;5092775;28;20433;-54
2022/03/29 03:50:11;;;;;;;3.70;1.30;;;;;;;8.35;96.95;95569.06;5092555;28;20466;-53
2022/03/29 03:52:39;;;;;;;0.30;0.20;;;;;;;8.50;94.96;95556.00;5092195;28;20437;-53
2022/03/29 03:55:08;;;;;;;0.40;0.40;;;;;;;8.57;93.51;95561.88;5092129;28;20475;-53
2022/03/29 03:57:37;;;;;;;12.73;0.43;;;;;;;8.56;93.23;95568.19;5092446;28;20454;-53
2022/03/29 04:00:07;;;;;;;0.30;0.30;;;;;;;8.34;94.99;95547.13;5092231;28;20428;-53
2022/03/29 04:02:36;;;;;;;0.40;0.30;;;;;;;8.46;93.23;95553.06;5091891;28;20460;-53
2022/03/29 04:05:08;;;;;;;0.40;0.30;;;;;;;8.50;92.68;95558.66;5092198;28;20432;-53
2022/03/29 04:07:36;;;;;;;1.60;1.50;;;;;;;8.48;92.66;95564.16;5092185;28;20841;-53
2022/03/29 04:10:05;;;;;;;0.30;0.20;;;;;;;8.42;93.78;95559.09;5091789;28;20519;-53
2022/03/29 04:12:34;;;;;;;0.50;0.50;;;;;;;8.62;90.89;95556.63;5091845;28;20456;-53
2022/03/29 04:15:02;;;;;;;1.17;1.17;;;;;;;8.66;90.65;95552.44;5092095;28;20424;-53
2022/03/29 04:17:31;;;;;;;0.50;0.50;;;;;;;8.86;88.50;95563.19;5091039;28;20463;-53
2022/03/29 04:20:01;;;;;;;0.30;0.20;;;;;;;8.79;87.24;95566.03;5092119;28;20969;-53
2022/03/29 04:22:30;;;;;;;0.37;0.27;;;;;;;8.83;86.01;95561.84;5092265;28;20512;-53
2022/03/29 04:24:58;;;;;;;0.30;0.20;;;;;;;8.78;87.10;95569.72;5091653;28;20503;-54
2022/03/29 04:27:27;;;;;;;0.87;0.87;;;;;;;8.86;85.69;95571.09;5092078;28;20459;-53
2022/03/29 04:29:55;;;;;;;2.30;1.13;;;;;;;8.88;86.01;95572.44;5091743;28;21115;-53
2022/03/29 04:32:24;;;;;;;0.40;0.33;;;;;;;8.77;87.07;95568.16;5091669;28;20432;-54
2022/03/29 04:34:52;;;;;;;0.33;0.27;;;;;;;8.88;84.96;95572.44;5091736;28;20595;-54
2022/03/29 04:37:24;;;;;;;1.07;1.07;;;;;;;8.94;85.03;95566.16;5091558;28;20432;-54
2022/03/29 04:39:52;;;;;;;0.40;0.27;;;;;;;8.92;85.16;95567.47;5091738;28;20478;-54
2022/03/29 04:42:21;;;;;;;0.40;0.40;;;;;;;8.92;84.73;95570.91;5091526;28;20432;-54
2022/03/29 04:44:49;;;;;;;0.70;0.70;;;;;;;8.73;87.58;95569.69;5091974;28;20558;-54
2022/03/29 04:47:18;;;;;;;0.40;0.40;;;;;;;8.64;88.71;95563.25;5091233;28;20486;-54
2022/03/29 04:49:46;;;;;;;0.93;0.93;;;;;;;8.50;89.21;95554.13;5091557;28;20424;-54
2022/03/29 04:52:15;;;;;;;0.63;0.60;;;;;;;8.52;91.26;95575.84;5091542;28;20521;-54
2022/03/29 04:54:45;;;;;;;0.63;0.63;;;;;;;8.51;93.16;95579.50;5091536;28;20424;-53
2022/03/29 04:57:13;;;;;;;0.40;0.40;;;;;;;8.55;92.86;95571.91;5091650;28;20523;-53
2022/03/29 04:59:42;;;;;;;0.83;0.83;;;;;;;8.48;95.72;95566.81;5091565;28;20460;-54
2022/03/29 05:02:15;;;;;;;0.60;0.60;;;;;;;8.61;95.11;95576.97;5091269;28;20916;-54
2022/03/29 05:04:44;;;;;;;33.93;1.50;;;;;;;8.28;98.92;95585.09;5090712;28;20495;-53
2022/03/29 05:07:12;;;;;;;7.53;1.20;;;;;;;7.78;100.00;95584.47;5091640;28;20858;-54
2022/03/29 05:09:41;;;;;;;1.50;1.50;;;;;;;7.70;100.00;95577.75;5091328;28;20471;-54
2022/03/29 05:12:11;;;;;;;0.40;0.30;;;;;;;7.64;100.00;95578.72;5091688;28;20516;-53
2022/03/29 05:14:39;;;;;;;3.90;0.77;;;;;;;7.60;100.00;95573.16;5091423;28;20519;-53
2022/03/29 05:17:08;;;;;;;1.37;1.27;;;;;;;7.74;100.00;95573.63;5091383;28;20969;-53
2022/03/29 05:19:36;;;;;;;3.07;1.60;;;;;;;8.01;100.00;95565.75;5091421;28;20847;-53
2022/03/29 05:22:05;;;;;;;0.70;0.70;;;;;;;8.14;100.00;95576.72;5091650;28;20517;-54
2022/03/29 05:24:33;;;;;;;1.13;1.10;;;;;;;8.12;100.00;95573.53;5091347;28;21013;-53
2022/03/29 05:27:02;;;;;;;1.37;1.27;;;;;;;7.91;100.00;95578.81;5091273;28;20520;-54
2022/03/29 05:29:31;;;;;;;1.10;1.10;;;;;;;7.78;100.00;95568.63;5091343;28;20470;-54
2022/03/29 05:32:00;;;;;;;1.43;1.43;;;;;;;8.05;100.00;95574.75;5091400;28;20476;-54
2022/03/29 05:34:29;;;;;;;1.57;1.50;;;;;;;8.21;100.00;95574.69;5091871;28;20416;-53
2022/03/29 05:36:57;;;;;;;2.00;1.13;;;;;;;8.39;100.00;95570.16;5094137;28;20493;-53
2022/03/29 05:39:26;;;;;;;0.73;0.73;;;;;;;8.47;100.00;95575.78;5095568;28;20417;-53
2022/03/29 05:41:54;;;;;;;1.40;1.23;;;;;;;8.19;100.00;95571.50;5095052;28;21001;-53
2022/03/29 05:44:23;;;;;;;4.03;2.50;;;;;;;7.93;100.00;95518.66;5095117;28;20913;-53
2022/03/29 05:49:39;;;;;;;2.87;1.73;;;;;;;9.11;96.06;95557.31;5094983;28;20428;-53
2022/03/29 05:52:08;;;;;;;1.73;0.47;;;;;;;9.78;89.38;95552.13;5094843;28;20475;-53
2022/03/29 05:54:36;;;;;;;3.83;1.43;;;;;;;9.74;89.86;95553.72;5095056;28;20474;-53
2022/03/29 05:57:05;;;;;;;3.23;2.23;;;;;;;9.52;91.18;95548.56;5094691;28;20458;-53
2022/03/29 05:59:34;;;;;;;1.00;0.50;;;;;;;9.67;91.28;95545.19;5094685;28;20457;-53
2022/03/29 06:02:05;;;;;;;2.30;2.20;;;;;;;10.42;84.18;95542.06;5095111;28;20794;-53
2022/03/29 06:04:34;;;;;;;2.30;1.17;;;;;;;10.80;78.10;95538.91;5094463;28;20484;-54
2022/03/29 06:07:04;;;;;;;2.00;1.90;;;;;;;10.89;77.88;95537.31;5094890;28;20429;-53
2022/03/29 06:09:33;;;;;;;4.53;1.83;;;;;;;11.30;73.84;95541.53;5094454;28;20879;-53
2022/03/29 06:12:03;;;;;;;2.50;1.20;;;;;;;11.53;70.20;95534.06;5094003;28;20571;-53
2022/03/29 06:14:31;;;;;;;1.57;1.30;;;;;;;11.57;71.73;95532.44;5094206;28;20425;-53
2022/03/29 06:17:00;;;;;;;6.60;0.80;;;;;;;11.75;71.31;95535.34;5094076;28;20444;-53
2022/03/29 06:19:30;;;;;;;0.83;0.83;;;;;;;11.87;67.87;95535.84;5094064;28;20473;-53
2022/03/29 06:21:59;;;;;;;1.57;1.50;;;;;;;12.50;65.32;95531.53;5094063;28;20866;-53
2022/03/29 06:24:28;;;;;;;1.23;1.17;;;;;;;12.87;62.44;95528.38;5093875;28;20501;-52
2022/03/29 06:26:56;;;;;;;1.03;1.00;;;;;;;13.15;59.85;95529.50;5093766;28;20817;-52
2022/03/29 06:29:25;;;;;;;1.93;1.83;;;;;;;13.21;59.86;95523.84;5094135;28;20456;-51
2022/03/29 06:31:53;;;;;;;0.83;0.50;;;;;;;13.15;59.51;95530.28;5093835;28;20530;-52
2022/03/29 06:34:22;;;;;;;5.83;2.50;;;;;;;12.92;60.41;95525.66;5093205;28;20467;-52
2022/03/29 06:36:52;;;;;;;1.40;1.40;;;;;;;12.97;60.75;95525.63;5093672;28;20539;-51
2022/03/29 06:39:20;;;;;;;7.50;1.13;;;;;;;13.20;59.34;95530.25;5093902;28;20475;-52
2022/03/29 06:41:48;;;;;;;3.30;1.43;;;;;;;12.55;61.73;95528.84;5093848;28;20509;-52
2022/03/29 06:44:17;;;;;;;11.97;1.90;;;;;;;13.51;58.74;95520.06;5093633;28;20449;-52
2022/03/29 06:46:47;;;;;;;2.73;2.63;;;;;;;13.79;57.70;95521.91;5093746;28;20464;-51
2022/03/29 06:49:15;;;;;;;7.93;2.70;;;;;;;14.17;56.17;95519.31;5092136;28;20435;-52
2022/03/29 06:51:44;;;;;;;3.30;3.10;;;;;;;14.60;56.52;95512.88;5093087;28;20521;-51
2022/03/29 06:54:14;;;;;;;4.50;2.13;;;;;;;14.52;53.83;95517.00;5093278;28;20421;-50
2022/03/29 06:56:43;;;;;;;5.60;1.97;;;;;;;14.71;53.96;95518.84;5093488;28;20456;-50
2022/03/29 06:59:11;;;;;;;3.97;2.40;;;;;;;15.43;49.44;95517.41;5093140;28;20468;-50
2022/03/29 07:01:39;;;;;;;3.23;3.00;;;;;;;15.71;49.46;95513.72;5093276;28;20984;-52
2022/03/29 07:04:09;;;;;;;4.67;2.27;;;;;;;15.56;49.09;95514.00;5093430;28;20441;-51
2022/03/29 07:06:37;;;;;;;3.60;1.13;;;;;;;15.91;48.06;95512.53;5093383;28;20432;-52
2022/03/29 07:12:13;;;;;;;3.30;3.00;;;;;;;15.97;46.34;95498.75;5092917;28;20490;-53
2022/03/29 07:14:41;;;;;;;0.70;0.70;;;;;;;16.43;43.81;95499.38;5093233;28;20460;-54
2022/03/29 07:17:13;;;;;;;1.17;1.07;;;;;;;16.00;44.11;95500.84;5092877;28;20463;-54
2022/03/29 07:19:42;;;;;;;4.30;1.27;;;;;;;16.15;44.31;95508.56;5093361;28;20569;-54
2022/03/29 07:22:10;;;;;;;2.20;2.00;;;;;;;16.12;44.15;95501.13;5093155;28;20440;-55
2022/03/29 07:24:39;;;;;;;0.60;0.60;;;;;;;17.36;42.56;95494.25;5092670;28;20432;-55
2022/03/29 07:27:08;;;;;;;1.53;1.10;;;;;;;17.55;41.43;95476.91;5093063;28;20486;-55
2022/03/29 07:29:38;;;;;;;0.80;0.80;;;;;;;17.51;40.43;95489.28;5092185;28;20863;-57
2022/03/29 07:32:07;;;;;;;0.63;0.63;;;;;;;17.75;40.55;95488.97;5092456;28;20887;-59
2022/03/29 07:34:36;;;;;;;1.60;1.50;;;;;;;18.64;39.73;95480.50;5092817;28;20944;-58
2022/03/29 07:37:06;;;;;;;2.13;0.90;;;;;;;19.57;38.92;95484.19;5093353;28;20460;-58
2022/03/29 07:39:34;;;;;;;2.10;0.83;;;;;;;19.74;37.61;95480.63;5092577;28;20456;-58
2022/03/29 07:42:05;;;;;;;0.57;0.57;;;;;;;20.82;35.26;95472.56;5092946;28;20460;-57
2022/03/29 07:44:34;;;;;;;6.77;1.47;;;;;;;19.82;38.13;95458.28;5092932;28;20460;-56
2022/03/29 07:47:04;;;;;;;0.73;0.73;;;;;;;19.11;36.84;95473.34;5092494;28;20436;-57
2022/03/29 07:49:33;;;;;;;2.17;1.80;;;;;;;19.34;35.13;95467.44;5092706;28;20841;-57
2022/03/29 07:52:21;;;;;;;1.67;0.63;;;;;;;18.97;35.86;95462.78;5092195;28;20618;-57
2022/03/29 07:54:50;;;;;;;0.93;0.93;;;;;;;19.16;35.77;95459.75;5092606;28;20499;-56
2022/03/29 07:57:19;;;;;;;1.53;1.43;;;;;;;19.77;35.27;95456.56;5091887;28;20912;-57
2022/03/29 08:02:58;;;;;;;1.00;1.00;;;;;;;20.13;34.30;95448.78;5091841;28;20975;-56
2022/03/29 08:05:28;;;;;;;0.60;0.60;;;;;;;20.97;33.62;95433.44;5092189;28;20431;-56
2022/03/29 08:07:58;;;;;;;1.77;1.57;;;;;;;19.93;34.74;95446.06;5091792;28;20440;-56
2022/03/29 08:10:28;;;;;;;0.87;0.87;;;;;;;20.89;33.70;95429.72;5092045;28;20792;-56
2022/03/29 08:12:57;;;;;;;0.80;0.67;;;;;;;20.73;34.00;95409.88;5091925;28;20479;-56
2022/03/29 08:15:25;;;;;;;1.10;1.00;;;;;;;21.77;32.89;95415.75;5091586;28;20508;-55
2022/03/29 08:18:01;;;;;;;0.73;0.73;;;;;;;20.79;32.74;95413.94;5092278;28;20428;-55
2022/03/29 08:20:30;;;;;;;1.17;0.70;;;;;;;20.93;32.39;95368.63;5092077;28;20516;-54
2022/03/29 08:23:00;;;;;;;0.80;0.80;;;;;;;19.86;33.81;95422.34;5092108;28;20988;-54
2022/03/29 08:25:31;;;;;;;1.03;1.03;;;;;;;20.47;34.41;95420.06;5092288;28;20435;-54
2022/03/29 08:28:00;;;;;;;1.17;1.00;;;;;;;20.82;33.42;95373.66;5092265;28;20799;-54
2022/03/29 08:30:30;;;;;;;1.20;0.97;;;;;;;19.64;33.66;95414.53;5092174;28;20428;-54
2022/03/29 08:33:01;;;;;;;0.80;0.80;;;;;;;19.31;34.13;95408.16;5091229;28;20857;-54
2022/03/29 08:35:30;;;;;;;0.63;0.60;;;;;;;19.38;33.98;95409.28;5092251;28;20479;-53
2022/03/29 08:37:59;;;;;;;5.60;0.80;;;;;;;19.62;34.58;95403.34;5090804;28;20459;-54
2022/03/29 08:40:47;;;;;;;3.87;0.70;;;;;;;19.12;35.83;95402.38;5091428;28;20536;-56
2022/03/29 08:43:16;;;;;;;0.80;0.80;;;;;;;19.69;34.83;95398.22;5092095;28;20505;-56
2022/03/29 08:45:49;;;;;;;1.37;0.83;;;;;;;19.60;35.33;95389.44;5092057;28;20435;-56
2022/03/29 08:48:23;;;;;;;7.70;1.97;;;;;;;19.73;35.33;95371.50;5091754;28;20912;-56
2022/03/29 08:50:52;;;;;;;0.40;0.40;;;;;;;20.33;33.74;95368.41;5092106;28;20461;-56
2022/03/29 08:53:35;;;;;;;0.50;0.30;;;;;;;18.73;35.46;95371.19;5091472;28;20521;-56
2022/03/29 08:56:03;;;;;;;1.20;0.90;;;;;;;18.55;36.25;95367.75;5091383;28;21035;-56
2022/03/29 08:58:32;;;;;;;0.73;0.73;;;;;;;19.82;35.41;95364.94;5091637;28;20424;-57
2022/03/29 09:01:00;;;;;;;1.30;1.30;;;;;;;18.89;35.96;95362.31;5091997;28;20425;-59
2022/03/29 09:03:33;;;;;;;6.30;1.07;;;;;;;16.67;37.26;95116.44;5091993;28;20412;-60
2022/03/29 09:06:09;;;;;;;0.47;0.40;;;;;;;18.77;36.96;95351.44;5091578;28;20533;-59
2022/03/29 09:08:45;;;;;;;2.30;0.53;;;;;;;20.10;36.65;95332.94;5091414;28;20476;-58
2022/03/29 09:11:14;;;;;;;11.90;1.47;;;;;;;20.61;35.09;95334.41;5092560;28;20463;-56
2022/03/29 09:13:43;;;;;;;0.80;0.60;;;;;;;20.79;34.60;95335.81;5095920;28;20503;-56
2022/03/29 09:16:30;;;;;;;0.57;0.40;;;;;;;22.15;32.35;95313.59;5094963;28;20459;-56
2022/03/29 09:19:00;;;;;;;0.60;0.53;;;;;;;22.41;31.46;95297.78;5095269;28;20501;-56
2022/03/29 09:21:29;;;;;;;1.70;1.30;;;;;;;23.22;30.90;95302.63;5095293;28;20471;-56
2022/03/29 09:24:06;;;;;;;0.77;0.70;;;;;;;22.60;30.33;95303.31;5095001;28;20515;-56
2022/03/29 09:26:37;;;;;;;0.87;0.87;;;;;;;22.95;30.65;95299.97;5095249;28;20523;-56
2022/03/29 09:29:13;;;;;;;4.07;0.73;;;;;;;23.33;29.79;95297.44;5095098;28;20440;-56
2022/03/29 09:31:42;;;;;;;1.00;0.90;;;;;;;24.06;28.49;95281.34;5094711;28;20451;-55
2022/03/29 09:34:17;;;;;;;1.80;0.80;;;;;;;24.23;28.83;95280.19;5095285;28;20472;-55
2022/03/29 09:36:48;;;;;;;0.70;0.70;;;;;;;23.57;29.42;95267.53;5095192;28;20883;-54
2022/03/29 09:39:36;;;;;;;0.63;0.63;;;;;;;23.88;29.54;95275.53;5095082;28;20456;-55
2022/03/29 09:42:08;;;;;;;1.23;1.23;;;;;;;22.53;31.01;95262.59;5095025;28;20515;-54
2022/03/29 09:44:41;;;;;;;0.73;0.73;;;;;;;22.17;30.64;95264.66;5095083;28;20420;-57
2022/03/29 09:47:11;;;;;;;1.23;1.13;;;;;;;22.82;30.26;95260.66;5102717;28;20419;-55
2022/03/29 09:49:53;;;;;;;1.37;0.60;;;;;;;23.50;29.14;95258.47;5095906;28;20794;-52
2022/03/29 09:52:23;;;;;;;1.53;1.23;;;;;;;22.61;30.93;95256.25;5094872;28;20515;-52
2022/03/29 09:55:13;;;;;;;0.40;0.40;;;;;;;23.48;29.56;95252.63;5094484;28;20521;-52
2022/03/29 09:57:45;;;;;;;0.70;0.70;;;;;;;23.72;29.83;95238.84;5094570;28;20424;-52
2022/03/29 10:00:17;;;;;;;0.60;0.50;;;;;;;23.18;29.56;95242.25;5094559;28;20462;-52
2022/03/29 10:02:46;;;;;;;0.50;0.40;;;;;;;25.55;28.32;95225.19;5093520;28;20424;-52
2022/03/29 10:05:19;;;;;;;0.50;0.50;;;;;;;25.97;26.68;95220.34;5094472;28;20772;-55
2022/03/29 10:09:25;;;;;;;1.13;1.07;;;;;;;26.39;26.85;95215.41;5094328;28;20511;-55
2022/03/29 10:10:44;;;;;;;2.80;0.73;;;;;;;26.69;27.84;95214.56;5094357;28;20468;-55
2022/03/29 10:13:13;;;;;;;0.50;0.50;;;;;;;27.26;25.50;95203.03;5094099;28;20854;-55
2022/03/29 10:15:42;;;;;;;0.70;0.70;;;;;;;25.88;25.16;95198.13;5094210;28;20420;-55
2022/03/29 10:18:11;;;;;;;0.80;0.70;;;;;;;24.13;27.12;95208.41;5094044;28;20425;-54
2022/03/29 10:20:42;;;;;;;2.30;0.53;;;;;;;24.46;26.84;95205.94;5094135;28;20431;-54
2022/03/29 10:23:14;;;;;;;0.67;0.67;;;;;;;24.38;26.83;95141.94;5093213;28;20522;-55
2022/03/29 10:25:43;;;;;;;1.03;1.00;;;;;;;24.88;26.72;95194.28;5094269;28;20779;-55
2022/03/29 10:28:12;;;;;;;0.40;0.30;;;;;;;24.61;27.43;95177.97;5094074;28;20416;-54
2022/03/29 10:30:42;;;;;;;0.30;0.30;;;;;;;22.98;29.04;95193.84;5093815;28;20429;-54
2022/03/29 10:33:18;;;;;;;0.80;0.63;;;;;;;22.35;29.80;95131.72;5094414;28;20428;-54
2022/03/29 10:36:06;;;;;;;2.33;0.53;;;;;;;22.94;29.49;95182.19;5094079;28;20493;-54
2022/03/29 10:38:57;;;;;;;0.77;0.50;;;;;;;23.00;29.23;95175.38;5094101;28;20557;-54
2022/03/29 10:41:51;;;;;;;1.03;0.93;;;;;;;23.43;29.66;95182.56;5093570;28;20900;-54
2022/03/29 10:44:20;;;;;;;1.17;0.50;;;;;;;22.32;29.35;95047.91;5093845;28;20952;-54
2022/03/29 10:46:50;;;;;;;7.60;0.93;;;;;;;23.06;28.03;95153.13;5093856;28;20479;-54
2022/03/29 10:49:24;;;;;;;0.40;0.40;;;;;;;22.84;28.52;95166.50;5093432;28;20555;-54
2022/03/29 10:51:55;;;;;;;0.43;0.40;;;;;;;21.94;28.93;95165.34;5093755;28;20517;-55
2022/03/29 10:54:32;;;;;;;2.40;0.60;;;;;;;21.50;29.72;95161.00;5093687;28;20463;-55
2022/03/29 10:57:03;;;;;;;0.50;0.50;;;;;;;21.70;29.54;95145.75;5093146;28;20944;-55
2022/03/29 10:59:32;;;;;;;0.40;0.30;;;;;;;21.32;29.59;95114.66;5093733;28;20412;-55
2022/03/29 11:02:15;;;;;;;0.90;0.60;;;;;;;22.15;28.46;95135.44;5093462;28;20433;-55
2022/03/29 11:05:02;;;;;;;0.40;0.40;;;;;;;21.51;26.94;95063.56;5093228;28;20424;-55
2022/03/29 11:07:33;;;;;;;1.00;1.00;;;;;;;21.76;26.94;95101.19;5091739;28;20566;-56
2022/03/29 11:10:10;;;;;;;0.40;0.30;;;;;;;20.83;27.96;95137.38;5092978;28;20464;-55
2022/03/29 11:12:45;;;;;;;0.50;0.40;;;;;;;20.40;28.87;95132.53;5092850;28;20466;-56
2022/03/29 11:15:40;;;;;;;2.60;0.60;;;;;;;20.30;29.35;95092.63;5092845;28;20474;-56
2022/03/29 11:18:47;;;;;;;0.60;0.40;;;;;;;20.80;28.95;95133.44;5093094;28;20435;-56
2022/03/29 11:21:46;;;;;;;11.43;0.77;;;;;;;21.91;27.54;95119.38;5092976;28;20489;-55
2022/03/29 11:24:21;;;;;;;0.63;0.63;;;;;;;21.25;27.75;95114.41;5092248;28;20464;-55
2022/03/29 11:26:59;;;;;;;0.90;0.90;;;;;;;21.01;28.39;95119.06;5092734;28;20440;-55
2022/03/29 11:29:27;;;;;;;0.93;0.60;;;;;;;21.36;28.06;95115.53;5092675;28;20814;-55
2022/03/29 11:31:57;;;;;;;0.40;0.30;;;;;;;21.26;27.62;95110.63;5093061;28;20432;-55
2022/03/29 11:34:38;;;;;;;0.50;0.47;;;;;;;20.45;27.75;95113.47;5091843;28;20475;-55
2022/03/29 11:37:07;;;;;;;0.70;0.30;;;;;;;20.51;28.20;95106.75;5092791;28;20468;-55
2022/03/29 11:39:37;;;;;;;1.37;0.80;;;;;;;21.48;27.55;95114.69;5092371;28;20432;-55
2022/03/29 11:42:06;;;;;;;0.50;0.40;;;;;;;21.36;27.68;95050.81;5092369;28;20515;-55
2022/03/29 11:44:34;;;;;;;0.60;0.60;;;;;;;20.88;27.24;95035.56;5093119;28;20489;-55
2022/03/29 11:47:03;;;;;;;0.63;0.63;;;;;;;21.61;26.82;95107.34;5093649;28;20432;-56
2022/03/29 11:49:40;;;;;;;0.60;0.50;;;;;;;22.46;26.84;95103.06;5093836;28;20420;-55
2022/03/29 11:52:12;;;;;;;0.40;0.30;;;;;;;23.85;25.34;95092.22;5093068;28;20499;-55
2022/03/29 11:54:47;;;;;;;1.40;0.80;;;;;;;24.05;25.50;95073.22;5092470;28;20468;-56
2022/03/29 11:57:22;;;;;;;4.10;1.17;;;;;;;22.89;26.58;95047.31;5092969;28;20533;-55
2022/03/29 11:59:51;;;;;;;1.20;1.10;;;;;;;24.27;25.93;95089.50;5092298;28;20455;-54